Time;durP1;ratioP1;P1;durP2;ratioP2;P2;SDS_P1;SDS_P2;PMS_P1;PMS_P2;Temp;Humidity;BMP_temperature;BMP_pressure;BME280_temperature;BME280_humidity;BME280_pressure;Samples;Min_cycle;Max_cycle;Signal;HPM_P1;HPM_P2
2021/12/17 00:01:08;;;;;;;19.17;11.07;;;8.40;85.10;;;;;;5051876;28;20174;-59
2021/12/17 00:03:48;;;;;;;13.67;8.90;;;8.30;81.10;;;;;;5049972;28;20435;-60
2021/12/17 00:08:51;;;;;;;14.80;9.23;;;8.20;86.50;;;;;;5049678;28;20430;-60
2021/12/17 00:11:17;;;;;;;18.03;10.93;;;8.20;90.70;;;;;;5053083;28;20881;-58
2021/12/17 00:13:45;;;;;;;17.10;10.37;;;8.20;88.00;;;;;;5048085;28;20449;-59
2021/12/17 00:16:21;;;;;;;18.13;11.90;;;8.20;83.30;;;;;;5052050;28;20443;-59
2021/12/17 00:19:53;;;;;;;19.70;10.43;;;8.20;81.20;;;;;;5056362;28;20515;-60
2021/12/17 00:44:12;;;;;;;18.20;12.77;;;7.90;92.10;;;;;;5046251;28;20955;-58
2021/12/17 00:49:25;;;;;;;16.97;10.60;;;7.80;96.00;;;;;;5042343;28;20492;-58
2021/12/17 00:52:01;;;;;;;24.23;12.43;;;7.80;96.90;;;;;;5047633;28;20861;-59
2021/12/17 00:54:38;;;;;;;21.17;12.07;;;7.70;98.10;;;;;;5048322;28;20556;-59
2021/12/17 00:57:19;;;;;;;18.87;11.80;;;7.70;98.10;;;;;;5047577;28;20534;-58
2021/12/17 00:59:48;;;;;;;21.53;13.20;;;7.80;98.20;;;;;;5048265;28;20421;-59
2021/12/17 01:02:17;;;;;;;21.67;11.10;;;7.90;95.20;;;;;;5056992;28;20443;-58
2021/12/17 01:04:51;;;;;;;21.63;12.90;;;8.00;93.20;;;;;;5049929;28;20497;-58
2021/12/17 01:07:19;;;;;;;20.30;12.47;;;7.90;92.10;;;;;;5049892;28;21069;-58
2021/12/17 01:09:46;;;;;;;19.17;11.80;;;7.80;92.60;;;;;;5052447;28;20442;-61
2021/12/17 01:12:13;;;;;;;18.33;11.73;;;7.80;95.20;;;;;;5046414;28;20452;-59
2021/12/17 01:14:40;;;;;;;22.50;12.17;;;7.80;94.20;;;;;;5047911;28;20538;-59
2021/12/17 01:17:08;;;;;;;20.50;12.63;;;7.90;95.40;;;;;;5046735;28;20451;-60
2021/12/17 01:22:28;;;;;;;19.57;11.03;;;7.90;92.20;;;;;;5053259;28;20455;-61
2021/12/17 01:24:53;;;;;;;19.20;12.13;;;8.00;92.30;;;;;;5049325;28;20956;-58
2021/12/17 01:35:34;;;;;;;20.87;12.63;;;8.00;94.90;;;;;;5054528;28;20442;-60
2021/12/17 01:43:16;;;;;;;20.00;12.37;;;8.10;94.20;;;;;;5048040;28;20812;-59
2021/12/17 01:45:42;;;;;;;17.93;11.87;;;8.10;98.30;;;;;;5046122;28;20428;-60
2021/12/17 01:48:16;;;;;;;17.93;11.00;;;8.20;94.20;;;;;;5046558;28;20189;-59
2021/12/17 01:56:36;;;;;;;24.30;13.97;;;8.20;97.30;;;;;;5054374;28;20990;-59
2021/12/17 02:02:06;;;;;;;22.60;13.20;;;8.20;95.60;;;;;;5041786;28;20807;-59
2021/12/17 02:04:34;;;;;;;23.83;12.43;;;8.10;95.20;;;;;;5047133;28;20418;-59
2021/12/17 02:07:01;;;;;;;20.40;12.47;;;8.10;94.20;;;;;;5053268;28;20947;-59
2021/12/17 02:21:08;;;;;;;25.43;14.83;;;8.20;92.40;;;;;;5050028;28;20963;-59
2021/12/17 02:31:59;;;;;;;26.43;14.33;;;8.00;94.10;;;;;;5057053;28;20459;-60
2021/12/17 02:37:00;;;;;;;23.97;14.13;;;8.00;87.90;;;;;;5050947;28;20451;-58
2021/12/17 02:47:32;;;;;;;28.07;15.80;;;8.20;88.10;;;;;;5049354;28;20416;-59
2021/12/17 02:49:58;;;;;;;26.43;15.33;;;8.20;87.30;;;;;;5046329;28;20479;-59
2021/12/17 02:52:29;;;;;;;31.27;15.00;;;8.20;81.00;;;;;;5049975;28;20540;-59
2021/12/17 02:54:57;;;;;;;27.23;15.47;;;8.00;90.70;;;;;;5049872;28;20293;-58
2021/12/17 02:57:25;;;;;;;26.07;14.87;;;8.00;88.20;;;;;;5057142;28;20431;-58
2021/12/17 02:59:51;;;;;;;28.67;14.90;;;8.00;90.70;;;;;;5050720;28;20421;-58
2021/12/17 03:02:19;;;;;;;26.23;14.30;;;8.00;88.60;;;;;;5056492;28;20816;-58
2021/12/17 03:04:44;;;;;;;29.23;16.03;;;8.10;91.10;;;;;;5049767;28;20447;-60
2021/12/17 03:07:12;;;;;;;26.70;14.10;;;8.10;85.80;;;;;;5052046;28;20413;-60
2021/12/17 03:12:22;;;;;;;22.43;13.97;;;8.10;78.60;;;;;;5050432;28;20805;-59
2021/12/17 03:15:00;;;;;;;28.37;15.60;;;8.00;84.60;;;;;;5048737;28;20487;-58
2021/12/17 03:17:55;;;;;;;29.40;16.30;;;8.10;85.20;;;;;;5051416;28;20778;-58
2021/12/17 03:25:42;;;;;;;26.90;15.70;;;8.00;87.90;;;;;;5048191;28;20447;-58
2021/12/17 03:28:07;;;;;;;29.40;17.07;;;7.90;86.90;;;;;;5050339;28;20447;-59
2021/12/17 03:30:33;;;;;;;27.83;14.10;;;7.80;92.40;;;;;;5051177;28;20229;-59
2021/12/17 03:32:59;;;;;;;27.10;14.47;;;7.80;92.40;;;;;;5049220;28;20212;-59
2021/12/17 03:35:24;;;;;;;32.30;16.27;;;7.70;92.40;;;;;;5053515;28;20544;-60
2021/12/17 03:37:50;;;;;;;22.73;13.87;;;7.70;93.80;;;;;;5049499;28;20453;-59
2021/12/17 03:40:17;;;;;;;31.17;16.40;;;7.80;91.10;;;;;;5044875;28;20181;-59
2021/12/17 03:42:47;;;;;;;26.57;15.70;;;7.80;91.10;;;;;;5049362;28;20185;-60
2021/12/17 03:45:15;;;;;;;26.67;15.13;;;7.80;84.10;;;;;;5050083;28;20410;-60
2021/12/17 03:47:40;;;;;;;24.97;14.20;;;7.70;82.20;;;;;;5049293;28;20424;-60
2021/12/17 03:50:06;;;;;;;35.63;15.17;;;7.50;92.30;;;;;;5049719;28;20947;-60
2021/12/17 03:52:32;;;;;;;29.13;14.13;;;7.60;93.20;;;;;;5049989;28;20533;-59
2021/12/17 03:54:59;;;;;;;30.17;16.00;;;;;;;;;;5049982;28;20500;-62
2021/12/17 03:57:24;;;;;;;22.50;13.47;;;7.70;93.50;;;;;;5048205;28;21043;-60
2021/12/17 03:59:50;;;;;;;28.73;16.50;;;7.70;87.50;;;;;;5040509;28;20421;-59
2021/12/17 04:02:16;;;;;;;24.60;15.10;;;7.70;88.30;;;;;;5042513;28;20642;-59
2021/12/17 04:04:43;;;;;;;38.30;17.73;;;7.60;85.30;;;;;;5048356;28;20192;-60
2021/12/17 04:07:08;;;;;;;26.97;14.57;;;7.60;85.90;;;;;;5051883;28;20497;-60
2021/12/17 04:09:34;;;;;;;28.40;15.37;;;7.60;86.60;;;;;;5051273;28;20835;-59
2021/12/17 04:12:01;;;;;;;27.17;15.10;;;7.60;91.90;;;;;;5053216;28;20649;-58
2021/12/17 04:14:34;;;;;;;29.97;14.73;;;7.60;92.00;;;;;;5052776;28;20244;-59
2021/12/17 04:17:04;;;;;;;24.70;14.03;;;7.70;89.60;;;;;;5047452;28;20963;-58
2021/12/17 04:19:30;;;;;;;30.80;15.37;;;;;;;;;;5051194;28;20439;-60
2021/12/17 04:21:56;;;;;;;24.77;14.33;;;7.50;85.70;;;;;;5052418;28;20478;-60
2021/12/17 04:24:22;;;;;;;34.27;17.67;;;7.20;97.90;;;;;;5060677;28;20513;-58
2021/12/17 04:26:48;;;;;;;33.43;15.50;;;7.30;97.90;;;;;;5052626;28;20195;-59
2021/12/17 04:29:14;;;;;;;27.33;15.80;;;7.40;96.40;;;;;;5058009;28;20216;-59
2021/12/17 04:31:39;;;;;;;30.40;15.57;;;7.40;94.30;;;;;;5052992;28;20442;-59
2021/12/17 04:34:06;;;;;;;29.70;14.80;;;7.40;94.00;;;;;;5048493;28;20512;-60
2021/12/17 04:36:34;;;;;;;27.70;14.33;;;;;;;;;;5055044;28;20211;-58
2021/12/17 04:39:01;;;;;;;31.03;16.00;;;7.40;95.00;;;;;;5048953;28;21023;-59
2021/12/17 04:44:22;;;;;;;26.17;15.00;;;7.40;91.40;;;;;;5047274;28;20451;-59
2021/12/17 04:46:58;;;;;;;30.33;16.37;;;7.40;91.10;;;;;;5047549;28;20542;-60
2021/12/17 04:57:38;;;;;;;34.60;15.53;;;7.20;94.40;;;;;;5057363;28;20441;-56
2021/12/17 05:00:09;;;;;;;27.00;15.10;;;7.20;99.60;;;;;;5039171;28;20958;-58
2021/12/17 05:02:41;;;;;;;35.33;16.90;;;7.30;96.70;;;;;;5063394;28;20434;-56
2021/12/17 05:05:09;;;;;;;32.97;16.03;;;7.40;94.20;;;;;;5053852;28;20516;-56
2021/12/17 05:07:38;;;;;;;23.50;13.90;;;7.30;90.20;;;;;;5058624;28;20427;-56
2021/12/17 05:10:16;;;;;;;28.23;14.20;;;7.20;89.70;;;;;;5051320;28;20403;-55
2021/12/17 05:20:50;;;;;;;25.53;15.10;;;7.10;94.50;;;;;;5046853;28;20542;-58
2021/12/17 05:23:28;;;;;;;32.10;16.40;;;7.10;93.80;;;;;;5058925;28;20188;-59
2021/12/17 05:25:56;;;;;;;28.43;16.77;;;7.10;97.70;;;;;;5054683;28;20413;-58
2021/12/17 05:28:22;;;;;;;27.47;16.03;;;7.10;97.80;;;;;;5060921;28;20457;-58
2021/12/17 05:30:48;;;;;;;34.10;16.93;;;;;;;;;;5052242;28;20452;-58
2021/12/17 05:33:16;;;;;;;27.70;15.50;;;7.10;97.80;;;;;;5052572;28;20430;-58
2021/12/17 05:35:42;;;;;;;28.67;17.47;;;7.10;93.60;;;;;;5052307;28;20928;-59
2021/12/17 05:38:08;;;;;;;26.20;15.83;;;7.00;95.50;;;;;;5048998;28;20541;-58
2021/12/17 05:40:34;;;;;;;31.10;16.87;;;7.00;98.40;;;;;;5056626;28;20492;-60
2021/12/17 05:43:02;;;;;;;25.60;14.70;;;;;;;;;;5055378;28;20442;-59
2021/12/17 05:45:35;;;;;;;32.57;16.30;;;7.10;92.10;;;;;;5056900;28;20545;-60
2021/12/17 05:48:06;;;;;;;35.13;15.60;;;7.00;93.90;;;;;;5059446;28;20474;-58
2021/12/17 05:50:33;;;;;;;28.53;15.77;;;7.00;92.20;;;;;;5049856;28;20457;-57
2021/12/17 05:52:59;;;;;;;39.03;15.90;;;7.00;91.60;;;;;;5050660;28;20458;-58
2021/12/17 05:55:26;;;;;;;27.23;16.50;;;6.90;95.00;;;;;;5053856;28;20438;-58
2021/12/17 05:57:52;;;;;;;30.43;16.37;;;7.00;94.60;;;;;;5052583;28;20481;-60
2021/12/17 06:00:22;;;;;;;32.93;17.20;;;7.00;92.40;;;;;;5051653;28;20950;-61
2021/12/17 06:02:48;;;;;;;30.37;13.77;;;6.90;92.70;;;;;;5051524;28;20446;-59
2021/12/17 06:05:14;;;;;;;31.40;17.53;;;6.90;98.30;;;;;;5051888;28;20462;-59
2021/12/17 06:07:40;;;;;;;25.83;15.70;;;6.90;97.70;;;;;;5052295;28;20417;-59
2021/12/17 06:10:08;;;;;;;32.10;17.20;;;6.90;99.90;;;;;;5050526;28;20192;-58
2021/12/17 06:12:34;;;;;;;31.60;16.83;;;6.90;99.90;;;;;;5051549;28;20463;-58
2021/12/17 06:15:02;;;;;;;35.73;18.10;;;6.80;99.90;;;;;;5057968;28;20443;-58
2021/12/17 06:17:28;;;;;;;33.47;16.20;;;6.80;99.90;;;;;;5060171;28;20333;-58
2021/12/17 06:19:53;;;;;;;34.93;17.73;;;6.90;99.90;;;;;;5055188;28;20537;-57
2021/12/17 06:22:19;;;;;;;37.60;17.77;;;;;;;;;;5052096;28;20378;-58
2021/12/17 06:24:45;;;;;;;35.90;17.63;;;6.80;99.90;;;;;;5051980;28;20192;-59
2021/12/17 06:27:16;;;;;;;36.17;18.47;;;6.90;99.90;;;;;;5051949;28;20462;-59
2021/12/17 06:29:43;;;;;;;39.83;17.33;;;6.80;99.90;;;;;;5056083;28;20465;-59
2021/12/17 06:32:08;;;;;;;38.47;17.77;;;6.80;99.90;;;;;;5052596;28;20446;-59
2021/12/17 06:34:35;;;;;;;36.23;19.17;;;6.80;99.90;;;;;;5051654;28;20466;-58
2021/12/17 06:37:01;;;;;;;36.20;18.70;;;6.80;99.90;;;;;;5051304;28;20577;-57
2021/12/17 06:39:26;;;;;;;32.70;16.70;;;6.80;99.90;;;;;;5055240;28;20873;-57
2021/12/17 06:41:52;;;;;;;32.93;15.60;;;6.70;99.90;;;;;;5051586;28;20449;-58
2021/12/17 06:44:22;;;;;;;37.87;18.30;;;6.70;99.90;;;;;;5051483;28;20212;-59
2021/12/17 06:59:57;;;;;;;36.57;17.50;;;6.70;99.90;;;;;;5051578;28;20505;-58
2021/12/17 07:10:43;;;;;;;35.93;18.60;;;6.70;99.90;;;;;;5051071;28;20504;-59
2021/12/17 07:34:31;;;;;;;42.27;21.20;;;6.30;99.90;;;;;;5060385;28;20473;-61
2021/12/17 07:39:28;;;;;;;37.67;19.97;;;6.10;99.90;;;;;;5053615;28;20446;-61
2021/12/17 07:41:53;;;;;;;42.03;19.60;;;6.40;99.90;;;;;;5065150;28;20796;-60
2021/12/17 07:44:19;;;;;;;36.80;17.03;;;6.30;99.90;;;;;;5054732;28;20685;-61
2021/12/17 07:46:45;;;;;;;40.37;20.23;;;6.30;99.90;;;;;;5061045;28;20199;-58
2021/12/17 07:49:10;;;;;;;43.23;19.47;;;6.30;99.90;;;;;;5061742;28;20425;-59
2021/12/17 07:51:36;;;;;;;38.57;19.50;;;6.40;99.90;;;;;;5052394;28;20203;-60
2021/12/17 07:54:02;;;;;;;34.20;18.97;;;6.50;99.90;;;;;;5058532;28;20615;-61
2021/12/17 07:56:39;;;;;;;44.17;18.77;;;6.50;99.90;;;;;;5053214;28;20455;-58
2021/12/17 07:59:05;;;;;;;37.80;16.60;;;6.50;99.90;;;;;;5051934;28;20898;-60
2021/12/17 08:01:31;;;;;;;37.80;17.20;;;6.40;99.90;;;;;;5057045;28;20448;-59
2021/12/17 08:03:56;;;;;;;33.60;18.67;;;6.50;99.90;;;;;;5062811;28;20430;-58
2021/12/17 08:06:22;;;;;;;36.40;17.37;;;6.50;99.90;;;;;;5054060;28;20196;-58
2021/12/17 08:08:47;;;;;;;40.23;20.10;;;6.40;99.90;;;;;;5063880;28;20262;-58
2021/12/17 08:11:13;;;;;;;32.00;17.60;;;6.30;99.90;;;;;;5052479;28;20191;-59
2021/12/17 08:13:40;;;;;;;35.57;16.80;;;6.40;99.90;;;;;;5068871;28;20207;-59
2021/12/17 08:16:34;;;;;;;37.67;20.00;;;6.50;99.90;;;;;;5055342;28;20180;-60
2021/12/17 08:26:57;;;;;;;33.83;20.17;;;6.60;99.90;;;;;;5062320;28;20446;-60
2021/12/17 08:31:51;;;;;;;40.13;20.27;;;6.50;99.90;;;;;;5063355;28;20530;-59
2021/12/17 08:34:16;;;;;;;34.70;18.60;;;6.60;99.90;;;;;;5059762;28;20508;-59
2021/12/17 08:36:42;;;;;;;43.57;19.33;;;6.60;99.90;;;;;;5062136;28;20466;-59
2021/12/17 08:39:07;;;;;;;38.67;18.50;;;6.60;99.90;;;;;;5052285;28;20185;-59
2021/12/17 08:41:33;;;;;;;30.97;15.70;;;6.50;99.90;;;;;;5069800;28;20545;-58
2021/12/17 08:43:59;;;;;;;38.30;18.73;;;6.40;99.90;;;;;;5063352;28;20192;-60
2021/12/17 08:46:25;;;;;;;41.00;19.80;;;6.40;99.90;;;;;;5058122;28;20184;-59
2021/12/17 08:48:50;;;;;;;31.07;18.60;;;6.30;99.90;;;;;;5054371;28;20245;-63
2021/12/17 08:51:16;;;;;;;33.40;16.87;;;6.40;99.90;;;;;;5052900;28;20423;-58
2021/12/17 08:53:42;;;;;;;35.83;16.57;;;6.50;99.90;;;;;;5067951;28;20204;-59
2021/12/17 08:56:08;;;;;;;31.47;16.03;;;6.50;99.90;;;;;;5056890;28;20184;-59
2021/12/17 08:58:35;;;;;;;34.63;15.40;;;6.60;99.90;;;;;;5049719;28;20445;-59
2021/12/17 09:01:03;;;;;;;29.37;15.77;;;6.50;99.90;;;;;;5054736;28;20619;-58
2021/12/17 09:03:29;;;;;;;27.17;15.20;;;;;;;;;;5057625;28;20574;-59
2021/12/17 09:05:55;;;;;;;30.60;15.60;;;6.50;99.90;;;;;;5057766;28;20478;-60
2021/12/17 09:08:22;;;;;;;30.20;16.03;;;;;;;;;;5053787;28;20458;-61
2021/12/17 09:10:48;;;;;;;28.07;16.70;;;;;;;;;;5063907;28;20444;-58
2021/12/17 09:13:14;;;;;;;32.53;18.13;;;6.50;99.90;;;;;;5065192;28;21018;-59
2021/12/17 09:15:40;;;;;;;37.03;18.67;;;6.50;99.90;;;;;;5055259;28;20413;-59
2021/12/17 09:18:07;;;;;;;31.23;17.00;;;;;;;;;;5062115;28;20492;-58
2021/12/17 09:20:33;;;;;;;34.77;18.03;;;;;;;;;;5061236;28;20473;-59
2021/12/17 09:22:58;;;;;;;36.07;18.73;;;6.30;99.90;;;;;;5068351;28;20545;-59
2021/12/17 09:25:24;;;;;;;39.80;19.40;;;6.50;99.90;;;;;;5062871;28;20510;-60
2021/12/17 09:27:50;;;;;;;34.17;18.00;;;6.60;99.90;;;;;;5069473;28;20233;-59
2021/12/17 09:30:18;;;;;;;36.30;17.17;;;6.60;99.90;;;;;;5056104;28;20318;-62
2021/12/17 09:32:44;;;;;;;33.97;17.43;;;6.60;99.90;;;;;;5055235;28;20234;-63
2021/12/17 09:35:11;;;;;;;33.13;17.20;;;6.60;99.90;;;;;;5054025;28;20448;-58
2021/12/17 09:37:38;;;;;;;41.30;17.20;;;6.50;99.90;;;;;;5068257;28;20409;-60
2021/12/17 09:40:06;;;;;;;42.47;17.77;;;6.70;99.90;;;;;;5054998;28;20446;-58
2021/12/17 09:42:35;;;;;;;32.07;16.90;;;6.80;99.90;;;;;;5055446;28;20855;-60
2021/12/17 09:45:03;;;;;;;34.17;17.63;;;6.70;99.90;;;;;;5059714;28;21006;-60
2021/12/17 09:47:29;;;;;;;35.60;18.13;;;6.80;99.90;;;;;;5062546;28;20434;-60
2021/12/17 09:49:56;;;;;;;30.60;16.30;;;7.00;99.90;;;;;;5066151;28;20474;-60
2021/12/17 09:52:23;;;;;;;31.63;15.60;;;6.90;99.90;;;;;;5050799;28;20474;-59
2021/12/17 09:54:49;;;;;;;34.63;15.73;;;7.00;99.90;;;;;;5065883;28;20949;-59
2021/12/17 09:57:17;;;;;;;31.70;16.83;;;7.00;99.90;;;;;;5054999;28;20476;-60
2021/12/17 09:59:43;;;;;;;29.20;15.07;;;7.00;99.90;;;;;;5068817;28;20839;-60
2021/12/17 10:02:09;;;;;;;32.43;16.07;;;7.00;99.90;;;;;;5057661;28;20474;-59
2021/12/17 10:04:35;;;;;;;35.13;16.90;;;7.00;99.90;;;;;;5057547;28;20456;-59
2021/12/17 10:07:25;;;;;;;32.00;17.30;;;7.10;99.90;;;;;;5048941;28;20442;-61
2021/12/17 10:09:52;;;;;;;28.93;16.53;;;7.10;99.90;;;;;;5058885;28;20418;-60
2021/12/17 10:12:23;;;;;;;35.30;15.07;;;7.10;93.60;;;;;;5061068;28;20970;-58
2021/12/17 10:14:59;;;;;;;27.97;15.30;;;7.10;97.80;;;;;;5057925;28;20444;-59
2021/12/17 10:17:25;;;;;;;27.67;14.70;;;7.10;96.50;;;;;;5063864;28;20528;-60
2021/12/17 10:19:55;;;;;;;31.63;16.03;;;7.30;92.50;;;;;;5072459;28;20504;-60
2021/12/17 10:22:21;;;;;;;26.90;14.47;;;7.30;92.10;;;;;;5056226;28;20581;-57
2021/12/17 10:25:04;;;;;;;31.20;15.17;;;7.30;87.10;;;;;;5052488;28;20446;-59
2021/12/17 10:27:32;;;;;;;27.90;15.60;;;7.30;83.30;;;;;;5053571;28;20428;-58
2021/12/17 10:29:59;;;;;;;30.97;16.47;;;7.30;72.80;;;;;;5066282;28;20476;-59
2021/12/17 10:32:27;;;;;;;28.40;16.50;;;7.30;69.30;;;;;;5069488;28;20442;-58
2021/12/17 10:35:02;;;;;;;31.67;14.73;;;7.00;68.70;;;;;;5069498;28;20465;-59
2021/12/17 10:37:33;;;;;;;29.63;15.93;;;6.80;92.80;;;;;;5070646;28;20469;-61
2021/12/17 10:39:59;;;;;;;26.90;16.50;;;6.90;96.40;;;;;;5062024;28;20502;-59
2021/12/17 10:42:38;;;;;;;35.27;15.70;;;7.00;91.60;;;;;;5055254;28;20430;-59
2021/12/17 10:45:11;;;;;;;39.17;16.20;;;;;;;;;;5060871;28;20179;-60
2021/12/17 10:47:46;;;;;;;31.63;16.70;;;6.90;95.30;;;;;;5061883;28;20418;-60
2021/12/17 10:50:22;;;;;;;32.33;18.10;;;6.90;98.00;;;;;;5058995;28;20426;-60
2021/12/17 10:52:55;;;;;;;33.10;17.43;;;7.00;91.70;;;;;;5057377;28;20420;-57
2021/12/17 10:55:23;;;;;;;38.80;17.77;;;7.00;92.40;;;;;;5058307;28;20892;-58
2021/12/17 10:57:49;;;;;;;29.60;16.40;;;6.90;93.60;;;;;;5062552;28;20582;-61
2021/12/17 11:00:20;;;;;;;29.33;15.80;;;7.00;91.60;;;;;;5063502;28;20529;-60
2021/12/17 11:02:50;;;;;;;26.43;13.80;;;7.00;81.40;;;;;;5059861;28;20405;-57
2021/12/17 11:05:17;;;;;;;28.70;15.93;;;7.00;91.30;;;;;;5060814;28;20483;-60
2021/12/17 11:07:48;;;;;;;28.17;15.57;;;7.10;88.00;;;;;;5071640;28;20408;-59
2021/12/17 11:10:15;;;;;;;32.37;15.60;;;7.00;85.40;;;;;;5065951;28;20452;-60
2021/12/17 11:12:45;;;;;;;25.87;14.90;;;7.00;91.70;;;;;;5061496;28;20461;-57
2021/12/17 11:15:20;;;;;;;22.90;13.00;;;7.00;81.60;;;;;;5071668;28;20449;-59
2021/12/17 11:17:58;;;;;;;28.60;12.77;;;7.10;79.80;;;;;;5060565;28;20434;-60
2021/12/17 11:20:36;;;;;;;23.43;12.80;;;7.10;79.90;;;;;;5058001;28;20479;-58
2021/12/17 11:23:07;;;;;;;20.07;13.10;;;7.10;77.90;;;;;;5063244;28;20425;-59
2021/12/17 11:25:35;;;;;;;24.87;12.90;;;7.20;71.30;;;;;;5067359;28;20436;-60
2021/12/17 11:28:01;;;;;;;29.27;14.73;;;;;;;;;;5062952;28;20888;-58
2021/12/17 11:30:29;;;;;;;25.10;13.70;;;7.10;72.70;;;;;;5060369;28;20449;-59
2021/12/17 11:32:56;;;;;;;20.80;13.23;;;7.00;72.60;;;;;;5055319;28;20470;-60
2021/12/17 11:35:25;;;;;;;25.07;13.83;;;7.00;79.80;;;;;;5056421;28;20538;-61
2021/12/17 11:37:53;;;;;;;25.40;13.53;;;7.00;83.70;;;;;;5067647;28;20952;-59
2021/12/17 11:40:30;;;;;;;27.20;14.23;;;7.00;74.50;;;;;;5065782;28;20440;-59
2021/12/17 11:43:04;;;;;;;27.07;14.50;;;7.00;79.70;;;;;;5062931;28;20410;-59
2021/12/17 11:45:31;;;;;;;26.60;12.97;;;7.10;79.00;;;;;;5060994;28;20434;-59
2021/12/17 11:48:21;;;;;;;28.87;13.83;;;7.00;78.50;;;;;;5057957;28;20553;-60
2021/12/17 11:51:07;;;;;;;26.27;14.50;;;7.20;70.30;;;;;;5048998;28;20481;-60
2021/12/17 11:53:39;;;;;;;24.60;14.67;;;7.20;61.40;;;;;;5052193;28;20473;-60
2021/12/17 11:56:05;;;;;;;22.73;13.47;;;7.30;65.60;;;;;;5051103;28;20423;-59
2021/12/17 11:58:49;;;;;;;25.80;14.27;;;7.20;65.00;;;;;;5051145;28;20437;-61
2021/12/17 12:01:48;;;;;;;22.37;13.73;;;7.30;63.50;;;;;;5063681;28;20183;-59
2021/12/17 12:04:32;;;;;;;25.43;14.03;;;7.30;59.30;;;;;;5069636;28;20446;-60
2021/12/17 12:07:25;;;;;;;25.47;13.00;;;7.20;60.20;;;;;;5058739;28;20474;-58
2021/12/17 12:09:57;;;;;;;25.83;14.13;;;7.20;65.90;;;;;;5050500;28;20920;-60
2021/12/17 12:12:24;;;;;;;23.47;14.77;;;7.20;65.70;;;;;;5057454;28;20425;-61
2021/12/17 12:14:49;;;;;;;24.07;13.93;;;7.20;65.50;;;;;;5068843;28;20473;-61
2021/12/17 12:17:53;;;;;;;26.70;14.13;;;7.20;73.10;;;;;;5061132;28;20434;-61
2021/12/17 12:20:50;;;;;;;25.03;13.97;;;7.20;71.70;;;;;;5042651;28;20278;-58
2021/12/17 12:23:32;;;;;;;23.43;12.97;;;7.20;73.00;;;;;;5054775;28;20430;-60
2021/12/17 12:26:04;;;;;;;22.50;13.90;;;7.20;74.40;;;;;;5060338;28;20492;-59
2021/12/17 12:28:50;;;;;;;24.23;14.00;;;7.10;75.60;;;;;;5061302;28;20803;-61
2021/12/17 12:31:30;;;;;;;30.57;15.73;;;7.20;75.00;;;;;;5050595;28;20637;-59
2021/12/17 12:34:02;;;;;;;28.37;13.13;;;7.20;76.90;;;;;;5052631;28;20491;-59
2021/12/17 12:37:05;;;;;;;26.90;13.40;;;7.30;70.10;;;;;;5066269;28;20431;-59
2021/12/17 12:39:52;;;;;;;26.10;14.93;;;7.20;67.50;;;;;;5049658;28;20474;-59
2021/12/17 12:42:22;;;;;;;23.47;13.40;;;7.20;71.90;;;;;;5047934;28;20901;-60
2021/12/17 12:44:47;;;;;;;22.33;12.70;;;7.20;71.90;;;;;;5058499;28;20428;-60
2021/12/17 12:47:31;;;;;;;32.13;12.73;;;7.40;73.00;;;;;;5059611;28;20412;-58
2021/12/17 12:50:09;;;;;;;19.50;12.30;;;7.40;65.70;;;;;;5060777;28;20176;-58
2021/12/17 12:52:39;;;;;;;23.53;12.83;;;7.30;65.60;;;;;;5062978;28;20494;-58
2021/12/17 12:55:16;;;;;;;25.03;13.60;;;7.20;68.00;;;;;;5051271;28;20463;-58
2021/12/17 12:57:58;;;;;;;28.10;14.33;;;7.20;73.50;;;;;;5049908;28;20420;-59
2021/12/17 13:00:30;;;;;;;24.33;12.90;;;7.20;80.00;;;;;;5055148;28;20450;-59
2021/12/17 13:03:14;;;;;;;28.40;13.93;;;7.30;81.50;;;;;;5056469;28;20413;-58
2021/12/17 13:05:43;;;;;;;24.70;14.27;;;7.30;83.10;;;;;;5062249;28;20542;-59
2021/12/17 13:08:12;;;;;;;24.27;14.00;;;7.40;80.30;;;;;;5066072;28;20439;-60
2021/12/17 13:10:40;;;;;;;23.60;13.93;;;7.30;84.80;;;;;;5062956;28;20524;-57
2021/12/17 13:13:17;;;;;;;21.10;12.73;;;7.30;90.50;;;;;;5067513;28;20432;-58
2021/12/17 13:15:50;;;;;;;24.93;13.53;;;7.20;94.80;;;;;;5055090;28;20421;-60
2021/12/17 13:23:54;;;;;;;27.53;14.40;;;7.20;99.90;;;;;;5056079;28;20497;-59
2021/12/17 13:26:23;;;;;;;27.80;13.93;;;7.10;99.90;;;;;;5057431;28;20962;-58
2021/12/17 13:29:05;;;;;;;24.33;14.10;;;7.10;99.90;;;;;;5049154;28;20442;-59
2021/12/17 13:32:10;;;;;;;26.00;14.77;;;7.20;99.90;;;;;;5057391;28;20439;-59
2021/12/17 13:34:36;;;;;;;25.53;14.37;;;;;;;;;;5043772;28;20986;-59
2021/12/17 13:37:09;;;;;;;24.17;14.03;;;7.20;99.90;;;;;;5061868;28;20413;-58
2021/12/17 13:39:42;;;;;;;24.13;14.90;;;7.30;99.90;;;;;;5064996;28;20687;-58
2021/12/17 13:42:12;;;;;;;25.30;15.10;;;7.20;99.90;;;;;;5058595;28;20434;-58
2021/12/17 13:44:43;;;;;;;24.50;14.20;;;7.20;99.90;;;;;;5064809;28;20578;-59
2021/12/17 13:47:29;;;;;;;34.37;16.97;;;7.50;99.90;;;;;;5050431;28;20502;-58
2021/12/17 13:50:21;;;;;;;30.23;16.00;;;7.30;99.90;;;;;;5051428;28;20448;-58
2021/12/17 13:53:00;;;;;;;26.33;14.70;;;7.20;99.90;;;;;;5062676;28;20409;-59
2021/12/17 13:55:37;;;;;;;26.20;16.57;;;7.20;99.90;;;;;;5071713;28;20909;-59
2021/12/17 13:58:11;;;;;;;30.67;16.73;;;7.40;99.90;;;;;;5064739;28;20429;-60
2021/12/17 14:00:42;;;;;;;30.90;17.27;;;7.40;99.90;;;;;;5055118;28;20768;-59
2021/12/17 14:03:13;;;;;;;30.87;17.50;;;7.40;99.90;;;;;;5058612;28;20418;-59
2021/12/17 14:06:01;;;;;;;28.33;16.93;;;7.40;99.90;;;;;;5064598;28;20428;-58
2021/12/17 14:08:26;;;;;;;24.97;16.10;;;7.50;99.90;;;;;;5064281;28;20405;-59
2021/12/17 14:10:56;;;;;;;35.07;17.50;;;7.50;99.90;;;;;;5061744;28;21047;-59
2021/12/17 14:13:23;;;;;;;35.63;19.30;;;7.50;99.90;;;;;;5056734;28;20216;-60
2021/12/17 14:15:51;;;;;;;33.03;18.00;;;7.60;99.90;;;;;;5064474;28;20917;-59
2021/12/17 14:18:18;;;;;;;32.60;19.27;;;7.60;99.90;;;;;;5058772;28;20503;-60
2021/12/17 14:20:49;;;;;;;26.90;18.03;;;7.40;99.90;;;;;;5058825;28;20542;-60
2021/12/17 14:23:20;;;;;;;35.00;17.90;;;7.50;99.90;;;;;;5056416;28;20413;-61
2021/12/17 14:25:52;;;;;;;26.63;17.93;;;7.40;99.90;;;;;;5060901;28;20458;-61
2021/12/17 14:28:30;;;;;;;31.20;17.43;;;7.50;99.90;;;;;;5057647;28;20792;-58
2021/12/17 14:31:09;;;;;;;28.93;17.33;;;7.50;99.90;;;;;;5066309;28;20526;-61
2021/12/17 14:33:52;;;;;;;30.13;18.63;;;7.50;99.90;;;;;;5066107;28;20836;-59
2021/12/17 14:36:30;;;;;;;29.77;16.90;;;7.50;99.90;;;;;;5068809;28;20456;-57
2021/12/17 14:39:13;;;;;;;32.73;19.37;;;7.40;99.90;;;;;;5065622;28;20452;-59
2021/12/17 14:41:54;;;;;;;34.10;19.47;;;7.40;99.90;;;;;;5067958;28;20412;-60
2021/12/17 14:47:49;;;;;;;24.37;15.30;;;7.40;99.90;;;;;;5060757;28;20477;-60
2021/12/17 15:00:57;;;;;;;23.40;15.47;;;7.50;99.90;;;;;;5067457;28;20939;-61
2021/12/17 15:05:57;;;;;;;26.73;15.40;;;7.30;99.90;;;;;;5071916;28;20488;-59
2021/12/17 15:08:23;;;;;;;25.00;14.67;;;7.30;99.90;;;;;;5062904;28;20417;-61
2021/12/17 15:10:49;;;;;;;25.40;15.80;;;7.30;99.90;;;;;;5066790;28;20438;-59
2021/12/17 15:13:14;;;;;;;25.10;13.87;;;7.30;99.90;;;;;;5066309;28;21123;-59
2021/12/17 15:15:41;;;;;;;27.33;16.67;;;7.40;99.90;;;;;;5058570;28;20192;-64
2021/12/17 15:18:17;;;;;;;25.90;15.33;;;7.40;99.90;;;;;;5050737;28;20435;-59
2021/12/17 15:20:48;;;;;;;23.00;14.30;;;7.40;99.90;;;;;;5063647;28;20446;-59
2021/12/17 15:23:15;;;;;;;29.90;16.60;;;7.40;99.90;;;;;;5052213;28;20903;-60
2021/12/17 15:25:41;;;;;;;27.07;16.93;;;7.40;99.90;;;;;;5056394;28;20489;-59
2021/12/17 15:28:09;;;;;;;30.87;16.73;;;7.40;99.90;;;;;;5063770;28;20458;-58
2021/12/17 15:30:39;;;;;;;32.60;17.27;;;7.30;99.90;;;;;;5058659;28;20468;-59
2021/12/17 15:33:06;;;;;;;21.90;14.57;;;7.40;99.90;;;;;;5068656;28;20433;-59
2021/12/17 15:35:33;;;;;;;26.23;16.30;;;7.40;99.90;;;;;;5055764;28;20950;-59
2021/12/17 15:37:59;;;;;;;28.17;17.70;;;7.50;99.90;;;;;;5067329;28;20966;-59
2021/12/17 15:40:26;;;;;;;30.17;17.70;;;7.40;99.90;;;;;;5059614;28;20466;-60
2021/12/17 15:42:53;;;;;;;31.43;18.80;;;7.30;99.90;;;;;;5062083;28;20429;-60
2021/12/17 15:45:19;;;;;;;29.20;17.30;;;;;;;;;;5067920;28;20412;-59
2021/12/17 15:47:45;;;;;;;30.07;18.30;;;7.30;99.90;;;;;;5061067;28;20797;-59
2021/12/17 15:50:14;;;;;;;33.03;17.80;;;7.30;99.90;;;;;;5054926;28;20481;-58
2021/12/17 15:52:46;;;;;;;31.37;18.27;;;7.40;99.90;;;;;;5062798;28;20185;-60
2021/12/17 15:55:17;;;;;;;27.33;17.00;;;7.50;99.90;;;;;;5061560;28;20564;-59
2021/12/17 15:57:43;;;;;;;28.77;16.60;;;7.40;99.90;;;;;;5057379;28;20414;-59
2021/12/17 16:00:10;;;;;;;30.60;17.20;;;7.30;99.90;;;;;;5059308;28;20459;-58
2021/12/17 16:02:39;;;;;;;28.00;17.40;;;7.40;99.90;;;;;;5051927;28;20804;-58
2021/12/17 16:05:07;;;;;;;29.33;17.27;;;7.40;99.90;;;;;;5057161;28;20435;-58